createdAt,value
2023-04-19T00:00:16.001Z,25.00
2023-04-19T00:01:16.045Z,25.00
2023-04-19T00:02:16.239Z,25.00
2023-04-19T00:03:16.361Z,0.00
2023-04-19T00:04:16.882Z,0.00
2023-04-19T00:05:16.386Z,0.00
2023-04-19T00:06:16.333Z,0.00
2023-04-19T00:07:16.385Z,0.00
2023-04-19T00:08:16.447Z,0.00
2023-04-19T00:09:16.489Z,0.00
2023-04-19T00:10:16.549Z,0.00
2023-04-19T00:11:16.605Z,16.87
2023-04-19T00:12:16.645Z,26.00
2023-04-19T00:13:16.675Z,26.74
2023-04-19T00:14:16.875Z,24.99
2023-04-19T00:15:16.685Z,26.27
2023-04-19T00:16:16.738Z,21.11
2023-04-19T00:17:16.719Z,31.15
2023-04-19T00:18:16.738Z,25.00
2023-04-19T00:19:16.750Z,25.00
2023-04-19T00:20:16.739Z,26.76
2023-04-19T00:21:16.749Z,20.82
2023-04-19T00:22:16.764Z,28.83
2023-04-19T00:23:16.761Z,26.89
2023-04-19T00:24:16.884Z,27.54
2023-04-19T00:25:16.763Z,25.07
2023-04-19T00:26:16.769Z,24.65
2023-04-19T00:27:16.774Z,31.67
2023-04-19T00:28:16.799Z,29.40
2023-04-19T00:29:17.145Z,30.48
2023-04-19T00:30:17.147Z,25.00
2023-04-19T00:31:17.207Z,30.27
2023-04-19T00:32:17.180Z,30.12
2023-04-19T00:33:17.193Z,28.11
2023-04-19T00:34:17.282Z,30.27
2023-04-19T00:35:17.145Z,30.85
2023-04-19T00:36:17.179Z,28.73
2023-04-19T00:37:17.198Z,32.32
2023-04-19T00:38:17.187Z,27.60
2023-04-19T00:39:17.195Z,31.52
2023-04-19T00:40:17.196Z,30.67
2023-04-19T00:41:17.187Z,29.25
2023-04-19T00:42:17.267Z,29.56
2023-04-19T00:43:17.200Z,32.17
2023-04-19T00:44:17.382Z,29.51
2023-04-19T00:45:17.274Z,29.72
2023-04-19T00:46:17.287Z,30.77
2023-04-19T00:47:17.251Z,30.32
2023-04-19T00:48:17.201Z,27.90
2023-04-19T00:49:17.189Z,32.01
2023-04-19T00:50:17.187Z,27.73
2023-04-19T00:51:17.200Z,30.53
2023-04-19T00:52:17.185Z,29.21
2023-04-19T00:53:17.183Z,31.59
2023-04-19T00:54:17.488Z,30.83
2023-04-19T00:55:17.194Z,30.94
2023-04-19T00:56:17.197Z,28.99
2023-04-19T00:57:17.197Z,32.24
2023-04-19T00:58:17.184Z,32.35
2023-04-19T00:59:17.188Z,29.41
2023-04-19T01:00:17.192Z,30.95
2023-04-19T01:01:17.303Z,32.57
2023-04-19T01:02:17.277Z,31.57
2023-04-19T01:03:17.360Z,33.70
2023-04-19T01:04:17.509Z,32.20
2023-04-19T01:05:17.195Z,31.95
2023-04-19T01:06:17.189Z,26.39
2023-04-19T01:07:17.188Z,32.72
2023-04-19T01:08:17.187Z,30.77
2023-04-19T01:09:17.475Z,27.91
2023-04-19T01:10:17.209Z,30.35
2023-04-19T01:11:17.185Z,26.62
2023-04-19T01:12:17.193Z,29.45
2023-04-19T01:13:17.198Z,30.62
2023-04-19T01:14:17.294Z,30.74
2023-04-19T01:15:17.184Z,30.18
2023-04-19T01:16:17.235Z,35.78
2023-04-19T01:17:17.225Z,32.67
2023-04-19T01:18:17.191Z,35.74
2023-04-19T01:19:17.197Z,27.65
2023-04-19T01:20:17.188Z,27.59
2023-04-19T01:21:17.191Z,32.04
2023-04-19T01:22:17.191Z,34.12
2023-04-19T01:23:17.190Z,33.97
2023-04-19T01:24:17.371Z,31.14
2023-04-19T01:25:17.184Z,30.67
2023-04-19T01:26:17.184Z,32.25
2023-04-19T01:27:17.194Z,32.98
2023-04-19T01:28:17.190Z,28.60
2023-04-19T01:29:17.196Z,32.31
2023-04-19T01:30:17.186Z,29.27
2023-04-19T01:31:17.296Z,25.00
2023-04-19T01:32:17.191Z,33.06
2023-04-19T01:33:17.212Z,32.71
2023-04-19T01:34:17.198Z,29.78
2023-04-19T01:35:17.186Z,34.36
2023-04-19T01:36:17.185Z,31.47
2023-04-19T01:37:17.214Z,33.03
2023-04-19T01:38:17.190Z,25.74
2023-04-19T01:39:17.197Z,32.48
2023-04-19T01:40:17.197Z,31.42
2023-04-19T01:41:17.194Z,32.49
2023-04-19T01:42:17.191Z,34.03
2023-04-19T01:43:17.205Z,29.91
2023-04-19T01:44:17.364Z,26.89
2023-04-19T01:45:17.180Z,32.88
2023-04-19T01:46:17.217Z,34.48
2023-04-19T01:47:17.204Z,33.58
2023-04-19T01:48:17.189Z,34.26
2023-04-19T01:49:17.214Z,33.49
2023-04-19T01:50:17.195Z,33.70
2023-04-19T01:51:17.187Z,32.50
2023-04-19T01:52:17.185Z,33.21
2023-04-19T01:53:17.207Z,28.78
2023-04-19T01:54:17.286Z,27.79
2023-04-19T01:55:17.198Z,30.51
2023-04-19T01:56:17.195Z,34.07
2023-04-19T01:57:17.190Z,34.24
2023-04-19T01:58:17.188Z,31.04
2023-04-19T01:59:17.185Z,34.37
2023-04-19T02:00:17.181Z,32.69
2023-04-19T02:01:17.224Z,31.74
2023-04-19T02:02:17.304Z,33.13
2023-04-19T02:03:17.318Z,30.52
2023-04-19T02:04:17.460Z,36.97
2023-04-19T02:05:17.235Z,34.36
2023-04-19T02:06:17.196Z,35.67
2023-04-19T02:07:17.211Z,36.80
2023-04-19T02:08:17.184Z,35.29
2023-04-19T02:09:17.198Z,35.43
2023-04-19T02:10:17.183Z,35.28
2023-04-19T02:11:17.190Z,29.47
2023-04-19T02:12:17.190Z,32.71
2023-04-19T02:13:17.194Z,35.54
2023-04-19T02:14:17.535Z,35.37
2023-04-19T02:15:17.182Z,33.79
2023-04-19T02:16:17.277Z,34.70
2023-04-19T02:17:17.193Z,29.89
2023-04-19T02:18:17.186Z,36.22
2023-04-19T02:19:18.198Z,32.21
2023-04-19T02:20:17.216Z,35.74
2023-04-19T02:21:17.298Z,33.77
2023-04-19T02:22:17.192Z,26.78
2023-04-19T02:23:17.189Z,33.97
2023-04-19T02:24:17.435Z,34.75
2023-04-19T02:25:18.190Z,32.49
2023-04-19T02:26:17.199Z,35.55
2023-04-19T02:27:17.198Z,34.01
2023-04-19T02:28:17.189Z,30.56
2023-04-19T02:29:17.201Z,35.53
2023-04-19T02:30:17.198Z,34.56
2023-04-19T02:31:17.212Z,36.33
2023-04-19T02:32:17.197Z,34.02
2023-04-19T02:33:17.240Z,38.56
2023-04-19T02:34:17.549Z,36.02
2023-04-19T02:35:17.202Z,32.65
2023-04-19T02:36:17.199Z,34.10
2023-04-19T02:37:17.322Z,33.16
2023-04-19T02:38:17.201Z,34.06
2023-04-19T02:39:17.206Z,35.18
2023-04-19T02:40:17.217Z,34.92
2023-04-19T02:41:17.209Z,33.19
2023-04-19T02:42:17.198Z,34.02
2023-04-19T02:43:17.198Z,32.80
2023-04-19T02:44:17.321Z,35.31
2023-04-19T02:45:17.213Z,32.69
2023-04-19T02:46:17.249Z,32.48
2023-04-19T02:47:17.201Z,34.06
2023-04-19T02:48:17.212Z,32.65
2023-04-19T02:49:17.207Z,33.59
2023-04-19T02:50:16.063Z,36.38
2023-04-19T02:51:17.210Z,28.48
2023-04-19T02:52:17.208Z,30.09
2023-04-19T02:53:17.236Z,33.99
2023-04-19T02:54:17.435Z,29.03
2023-04-19T02:55:17.232Z,33.39
2023-04-19T02:56:17.248Z,31.88
2023-04-19T02:57:17.203Z,35.62
2023-04-19T02:58:17.205Z,34.90
2023-04-19T02:59:17.205Z,33.80
2023-04-19T03:00:17.231Z,35.26
2023-04-19T03:01:17.229Z,34.97
2023-04-19T03:02:17.237Z,33.44
2023-04-19T03:03:17.287Z,32.66
2023-04-19T03:04:17.426Z,33.52
2023-04-19T03:05:17.228Z,34.64
2023-04-19T03:06:17.217Z,31.54
2023-04-19T03:07:17.204Z,29.43
2023-04-19T03:08:17.214Z,36.49
2023-04-19T03:09:17.239Z,30.68
2023-04-19T03:10:17.224Z,33.48
2023-04-19T03:11:17.214Z,33.86
2023-04-19T03:12:17.214Z,35.61
2023-04-19T03:13:17.215Z,35.22
2023-04-19T03:14:17.384Z,35.14
2023-04-19T03:15:17.214Z,36.61
2023-04-19T03:16:17.384Z,31.94
2023-04-19T03:17:17.280Z,32.84
2023-04-19T03:18:18.233Z,30.36
2023-04-19T03:19:17.228Z,35.03
2023-04-19T03:20:17.277Z,34.60
2023-04-19T03:21:17.229Z,35.68
2023-04-19T03:22:17.219Z,33.29
2023-04-19T03:23:17.231Z,31.52
2023-04-19T03:24:17.412Z,34.89
2023-04-19T03:25:17.267Z,34.60
2023-04-19T03:26:17.239Z,35.75
2023-04-19T03:27:17.258Z,30.26
2023-04-19T03:28:17.266Z,38.08
2023-04-19T03:29:17.260Z,34.92
2023-04-19T03:30:17.277Z,29.25
2023-04-19T03:31:17.305Z,33.82
2023-04-19T03:32:17.273Z,34.20
2023-04-19T03:33:17.280Z,35.65
2023-04-19T03:34:17.584Z,28.15
2023-04-19T03:35:17.282Z,33.64
2023-04-19T03:36:17.316Z,32.44
2023-04-19T03:37:17.284Z,33.68
2023-04-19T03:38:17.290Z,31.85
2023-04-19T03:39:17.291Z,34.48
2023-04-19T03:40:17.293Z,33.50
2023-04-19T03:41:17.318Z,26.97
2023-04-19T03:42:17.299Z,30.61
2023-04-19T03:43:17.298Z,32.04
2023-04-19T03:44:17.539Z,30.43
2023-04-19T03:45:17.305Z,33.86
2023-04-19T03:46:17.315Z,35.24
2023-04-19T03:47:17.313Z,30.07
2023-04-19T03:48:17.326Z,34.20
2023-04-19T03:49:17.322Z,32.44
2023-04-19T03:50:17.327Z,33.17
2023-04-19T03:51:17.346Z,32.78
2023-04-19T03:52:17.337Z,34.06
2023-04-19T03:53:17.339Z,33.88
2023-04-19T03:54:17.547Z,34.90
2023-04-19T03:55:17.357Z,33.93
2023-04-19T03:56:17.341Z,32.40
2023-04-19T03:57:17.381Z,30.36
2023-04-19T03:58:17.344Z,35.17
2023-04-19T03:59:17.348Z,33.92
2023-04-19T04:00:17.348Z,33.51
2023-04-19T04:01:17.366Z,32.06
2023-04-19T04:02:17.475Z,33.73
2023-04-19T04:03:17.523Z,35.11
2023-04-19T04:04:17.822Z,35.65
2023-04-19T04:05:18.290Z,30.50
2023-04-19T04:06:17.364Z,31.78
2023-04-19T04:07:17.369Z,33.65
2023-04-19T04:08:17.369Z,33.91
2023-04-19T04:09:17.373Z,30.96
2023-04-19T04:10:17.388Z,34.41
2023-04-19T04:11:17.380Z,30.78
2023-04-19T04:12:17.387Z,31.93
2023-04-19T04:13:17.489Z,31.66
2023-04-19T04:14:17.503Z,34.05
2023-04-19T04:15:17.405Z,31.52
2023-04-19T04:16:17.451Z,33.15
2023-04-19T04:17:17.411Z,31.34
2023-04-19T04:18:17.426Z,32.58
2023-04-19T04:19:17.410Z,30.01
2023-04-19T04:20:17.410Z,29.39
2023-04-19T04:21:17.409Z,33.05
2023-04-19T04:22:17.483Z,29.36
2023-04-19T04:23:20.018Z,33.55
2023-04-19T04:24:17.417Z,33.07
2023-04-19T04:25:17.409Z,27.97
2023-04-19T04:26:17.402Z,36.50
2023-04-19T04:27:17.395Z,32.58
2023-04-19T04:28:17.394Z,34.41
2023-04-19T04:29:18.318Z,32.70
2023-04-19T04:30:17.379Z,37.80
2023-04-19T04:31:17.400Z,31.32
2023-04-19T04:32:17.378Z,35.94
2023-04-19T04:33:17.366Z,35.22
2023-04-19T04:34:17.550Z,35.58
2023-04-19T04:35:17.348Z,37.03
2023-04-19T04:36:17.375Z,33.11
2023-04-19T04:37:17.338Z,27.61
2023-04-19T04:38:23.965Z,34.18
2023-04-19T04:39:17.339Z,34.51
2023-04-19T04:40:17.318Z,35.72
2023-04-19T04:41:17.316Z,36.11
2023-04-19T04:42:17.311Z,37.05
2023-04-19T04:43:17.310Z,37.47
2023-04-19T04:44:17.299Z,34.56
2023-04-19T04:45:17.328Z,35.21
2023-04-19T04:46:17.346Z,29.54
2023-04-19T04:47:17.284Z,35.07
2023-04-19T04:48:17.278Z,36.16
2023-04-19T04:49:17.291Z,34.50
2023-04-19T04:50:17.272Z,35.43
2023-04-19T04:51:17.282Z,31.67
2023-04-19T04:52:17.309Z,35.96
2023-04-19T04:53:17.281Z,34.38
2023-04-19T04:54:17.501Z,35.82
2023-04-19T04:55:17.274Z,34.13
2023-04-19T04:56:17.315Z,34.03
2023-04-19T04:57:17.276Z,35.60
2023-04-19T04:58:18.563Z,33.54
2023-04-19T04:59:17.293Z,33.80
2023-04-19T05:00:17.282Z,34.39
2023-04-19T05:01:17.377Z,35.61
2023-04-19T05:02:17.360Z,34.38
2023-04-19T05:03:17.304Z,32.23
2023-04-19T05:04:17.610Z,37.76
2023-04-19T05:05:17.287Z,39.02
2023-04-19T05:06:17.568Z,31.07
2023-04-19T05:07:17.298Z,37.84
2023-04-19T05:08:17.291Z,36.15
2023-04-19T05:09:17.290Z,28.50
2023-04-19T05:10:17.280Z,34.18
2023-04-19T05:11:17.289Z,25.99
2023-04-19T05:12:17.305Z,33.87
2023-04-19T05:13:17.297Z,32.20
2023-04-19T05:14:17.417Z,34.53
2023-04-19T05:15:17.289Z,33.12
2023-04-19T05:16:17.307Z,34.47
2023-04-19T05:17:17.324Z,34.65
2023-04-19T05:18:17.293Z,32.92
2023-04-19T05:19:17.290Z,33.67
2023-04-19T05:20:17.288Z,27.70
2023-04-19T05:21:17.288Z,33.86
2023-04-19T05:22:17.304Z,34.23
2023-04-19T05:23:17.299Z,35.38
2023-04-19T05:24:17.514Z,31.21
2023-04-19T05:25:17.298Z,32.00
2023-04-19T05:26:17.285Z,30.76
2023-04-19T05:27:17.300Z,33.90
2023-04-19T05:28:17.308Z,34.33
2023-04-19T05:29:17.307Z,35.14
2023-04-19T05:30:17.297Z,37.21
2023-04-19T05:31:17.429Z,34.74
2023-04-19T05:32:17.293Z,30.57
2023-04-19T05:33:17.341Z,35.63
2023-04-19T05:34:19.067Z,35.80
2023-04-19T05:35:17.568Z,36.00
2023-04-19T05:36:17.314Z,36.65
2023-04-19T05:37:17.308Z,36.11
2023-04-19T05:38:17.304Z,35.83
2023-04-19T05:39:17.327Z,32.27
2023-04-19T05:40:17.311Z,36.19
2023-04-19T05:41:17.272Z,35.92
2023-04-19T05:42:16.894Z,34.58
2023-04-19T05:43:17.586Z,30.20
2023-04-19T05:44:17.194Z,36.53
2023-04-19T05:45:17.308Z,35.27
2023-04-19T05:46:16.921Z,36.28
2023-04-19T05:47:17.335Z,33.79
2023-04-19T05:48:16.868Z,35.80
2023-04-19T05:49:16.881Z,34.67
2023-04-19T05:50:16.832Z,33.05
2023-04-19T05:51:16.821Z,31.72
2023-04-19T05:52:17.321Z,32.22
2023-04-19T05:53:17.328Z,36.96
2023-04-19T05:54:17.128Z,31.85
2023-04-19T05:55:16.796Z,36.89
2023-04-19T05:56:16.813Z,37.73
2023-04-19T05:57:16.777Z,35.40
2023-04-19T05:58:20.593Z,38.64
2023-04-19T05:59:17.341Z,38.94
2023-04-19T06:00:17.336Z,39.01
2023-04-19T06:01:16.804Z,39.97
2023-04-19T06:02:16.847Z,42.32
2023-04-19T06:03:16.971Z,48.42
2023-04-19T06:04:17.816Z,46.70
2023-04-19T06:05:20.103Z,49.63
2023-04-19T06:06:16.991Z,49.76
2023-04-19T06:07:31.108Z,50.46
2023-04-19T06:08:16.825Z,50.09
2023-04-19T06:09:16.835Z,52.04
2023-04-19T06:10:16.818Z,54.00
2023-04-19T06:11:26.544Z,55.62
2023-04-19T06:12:16.774Z,50.30
2023-04-19T06:13:16.814Z,52.79
2023-04-19T06:14:17.859Z,56.87
2023-04-19T06:15:16.754Z,63.42
2023-04-19T06:16:16.844Z,76.35
2023-04-19T06:17:16.882Z,76.90
2023-04-19T06:18:19.092Z,70.62
2023-04-19T06:19:17.323Z,70.91
2023-04-19T06:20:16.829Z,71.81
2023-04-19T06:21:16.847Z,70.77
2023-04-19T06:22:16.814Z,73.63
2023-04-19T06:23:16.812Z,73.54
2023-04-19T06:24:16.928Z,76.84
2023-04-19T06:25:17.345Z,70.54
2023-04-19T06:26:18.602Z,77.42
2023-04-19T06:27:16.782Z,76.16
2023-04-19T06:28:16.829Z,84.14
2023-04-19T06:29:16.792Z,80.88
2023-04-19T06:30:18.404Z,85.54
2023-04-19T06:31:17.493Z,80.93
2023-04-19T06:32:17.389Z,86.19
2023-04-19T06:33:17.606Z,82.36
2023-04-19T06:34:17.790Z,74.85
2023-04-19T06:35:17.332Z,80.32
2023-04-19T06:36:17.340Z,85.61
2023-04-19T06:37:18.400Z,80.01
2023-04-19T06:38:17.368Z,83.67
2023-04-19T06:39:17.623Z,81.22
2023-04-19T06:40:17.461Z,87.67
2023-04-19T06:41:17.524Z,81.46
2023-04-19T06:42:17.555Z,83.00
2023-04-19T06:43:18.248Z,84.60
2023-04-19T06:44:17.965Z,78.63
2023-04-19T06:45:18.125Z,89.85
2023-04-19T06:46:18.887Z,85.57
2023-04-19T06:47:17.874Z,80.01
2023-04-19T06:48:17.935Z,83.75
2023-04-19T06:49:17.985Z,84.86
2023-04-19T06:50:18.149Z,83.77
2023-04-19T06:51:18.093Z,95.07
2023-04-19T06:52:18.113Z,93.60
2023-04-19T06:53:18.194Z,96.58
2023-04-19T06:54:18.773Z,88.48
2023-04-19T06:55:18.650Z,96.93
2023-04-19T06:56:18.336Z,91.31
2023-04-19T06:57:18.375Z,91.74
2023-04-19T06:58:19.098Z,93.40
2023-04-19T06:59:18.486Z,96.42
2023-04-19T07:00:18.603Z,96.35
2023-04-19T07:01:18.615Z,94.37
2023-04-19T07:02:19.634Z,97.13
2023-04-19T07:03:18.805Z,95.29
2023-04-19T07:04:19.325Z,94.59
2023-04-19T07:05:18.792Z,90.77
2023-04-19T07:06:19.600Z,90.88
2023-04-19T07:07:18.870Z,93.71
2023-04-19T07:08:18.953Z,95.96
2023-04-19T07:09:19.004Z,86.45
2023-04-19T07:10:19.031Z,83.42
2023-04-19T07:11:20.436Z,93.12
2023-04-19T07:12:19.069Z,89.44
2023-04-19T07:13:19.050Z,85.83
2023-04-19T07:14:19.182Z,92.09
2023-04-19T07:15:19.030Z,85.54
2023-04-19T07:16:19.127Z,85.52
2023-04-19T07:17:19.016Z,90.79
2023-04-19T07:18:19.014Z,87.52
2023-04-19T07:19:19.014Z,86.98
2023-04-19T07:20:19.283Z,82.21
2023-04-19T07:21:19.484Z,83.01
2023-04-19T07:22:18.987Z,85.14
2023-04-19T07:23:19.098Z,84.63
2023-04-19T07:24:18.966Z,89.90
2023-04-19T07:25:18.986Z,91.13
2023-04-19T07:26:18.956Z,90.04
2023-04-19T07:27:18.950Z,89.76
2023-04-19T07:28:19.107Z,79.07
2023-04-19T07:29:18.953Z,85.75
2023-04-19T07:30:18.920Z,84.37
2023-04-19T07:31:18.912Z,85.93
2023-04-19T07:32:19.126Z,86.28
2023-04-19T07:33:19.999Z,75.45
2023-04-19T07:34:19.108Z,85.64
2023-04-19T07:35:18.922Z,82.96
2023-04-19T07:36:19.905Z,84.18
2023-04-19T07:37:18.877Z,80.18
2023-04-19T07:38:17.853Z,87.10
2023-04-19T07:39:19.113Z,87.27
2023-04-19T07:40:18.866Z,80.27
2023-04-19T07:41:18.963Z,82.45
2023-04-19T07:42:19.628Z,83.34
2023-04-19T07:43:18.832Z,80.94
2023-04-19T07:44:19.506Z,81.20
2023-04-19T07:45:19.822Z,78.00
2023-04-19T07:46:19.892Z,85.39
2023-04-19T07:47:19.849Z,76.55
2023-04-19T07:48:18.908Z,87.06
2023-04-19T07:49:19.110Z,81.04
2023-04-19T07:50:19.447Z,82.03
2023-04-19T07:51:18.964Z,78.68
2023-04-19T07:52:18.961Z,79.84
2023-04-19T07:53:18.966Z,84.18
2023-04-19T07:54:25.613Z,85.54
2023-04-19T07:55:19.123Z,85.72
2023-04-19T07:56:18.947Z,86.51
2023-04-19T07:57:19.141Z,85.59
2023-04-19T07:58:18.934Z,85.20
2023-04-19T07:59:19.610Z,83.82
2023-04-19T08:00:18.946Z,77.58
2023-04-19T08:01:18.922Z,75.92
2023-04-19T08:02:19.623Z,86.37
2023-04-19T08:03:19.155Z,84.18
2023-04-19T08:04:19.738Z,80.43
2023-04-19T08:05:19.098Z,86.36
2023-04-19T08:06:19.133Z,86.96
2023-04-19T08:07:19.116Z,81.03
2023-04-19T08:08:19.097Z,87.47
2023-04-19T08:09:19.110Z,82.74
2023-04-19T08:10:19.476Z,81.91
2023-04-19T08:11:19.163Z,83.01
2023-04-19T08:12:32.996Z,76.64
2023-04-19T08:13:19.247Z,77.18
2023-04-19T08:14:32.537Z,78.56
2023-04-19T08:15:52.266Z,77.24
2023-04-19T08:16:56.221Z,77.37
2023-04-19T08:17:25.575Z,77.77
2023-04-19T08:18:19.222Z,77.97
2023-04-19T08:19:19.128Z,81.59
2023-04-19T08:20:19.131Z,82.18
2023-04-19T08:21:22.272Z,87.70
2023-04-19T08:22:19.106Z,77.31
2023-04-19T08:23:24.553Z,79.82
2023-04-19T08:24:19.195Z,77.66
2023-04-19T08:25:19.131Z,80.01
2023-04-19T08:26:19.625Z,81.44
2023-04-19T08:27:19.103Z,86.01
2023-04-19T08:28:19.089Z,94.53
2023-04-19T08:29:19.773Z,82.59
2023-04-19T08:30:19.134Z,81.46
2023-04-19T08:31:19.091Z,88.01
2023-04-19T08:32:19.084Z,83.34
2023-04-19T08:33:19.147Z,90.34
2023-04-19T08:34:19.021Z,83.42
2023-04-19T08:35:19.134Z,88.19
2023-04-19T08:36:22.363Z,89.80
2023-04-19T08:37:19.001Z,90.13
2023-04-19T08:38:18.988Z,89.89
2023-04-19T08:39:31.609Z,87.89
2023-04-19T08:40:19.143Z,90.09
2023-04-19T08:41:18.979Z,90.88
2023-04-19T08:42:33.094Z,87.83
2023-04-19T08:43:19.161Z,90.07
2023-04-19T08:44:32.552Z,90.43
2023-04-19T08:45:27.592Z,90.41
2023-04-19T08:46:20.003Z,90.47
2023-04-19T08:47:30.301Z,90.27
2023-04-19T08:48:22.144Z,90.39
2023-04-19T08:49:19.907Z,90.66
2023-04-19T08:50:31.209Z,91.44
2023-04-19T08:51:18.905Z,90.53
2023-04-19T08:52:18.894Z,91.18
2023-04-19T08:53:25.109Z,89.82
2023-04-19T08:54:21.638Z,90.33
2023-04-19T08:55:19.141Z,90.49
2023-04-19T08:56:34.460Z,91.70
2023-04-19T08:57:19.140Z,90.26
2023-04-19T08:58:30.609Z,90.90
2023-04-19T08:59:20.328Z,90.47
2023-04-19T09:00:18.838Z,90.45
2023-04-19T09:01:33.065Z,92.26
2023-04-19T09:02:18.918Z,90.39
2023-04-19T09:03:19.175Z,92.42
2023-04-19T09:04:34.809Z,90.82
2023-04-19T09:05:19.283Z,90.18
2023-04-19T09:06:19.049Z,90.14
2023-04-19T09:07:19.144Z,90.43
2023-04-19T09:08:18.773Z,91.26
2023-04-19T09:10:17.787Z,89.93
2023-04-19T09:11:18.775Z,86.92
2023-04-19T09:12:19.157Z,89.64
2023-04-19T09:13:18.737Z,89.81
2023-04-19T09:14:18.729Z,82.49
2023-04-19T09:15:19.152Z,89.20
2023-04-19T09:16:18.785Z,83.77
2023-04-19T09:17:18.765Z,85.38
2023-04-19T09:18:18.691Z,83.79
2023-04-19T09:19:25.800Z,76.95
2023-04-19T09:20:18.681Z,77.77
2023-04-19T09:21:18.678Z,79.71
2023-04-19T09:22:18.787Z,81.60
2023-04-19T09:23:18.665Z,82.15
2023-04-19T09:24:18.661Z,86.25
2023-04-19T09:25:39.098Z,82.53
2023-04-19T09:26:23.502Z,82.98
2023-04-19T09:27:18.642Z,83.14
2023-04-19T09:28:18.642Z,84.69
2023-04-19T09:29:19.037Z,88.83
2023-04-19T09:30:29.925Z,90.97
2023-04-19T09:31:39.205Z,83.10
2023-04-19T09:32:18.605Z,83.55
2023-04-19T09:33:18.761Z,85.17
2023-04-19T09:34:18.595Z,88.66
2023-04-19T09:35:18.646Z,89.06
2023-04-19T09:36:18.689Z,90.96
2023-04-19T09:37:35.021Z,94.62
2023-04-19T09:38:18.554Z,94.88
2023-04-19T09:39:18.573Z,95.48
2023-04-19T09:40:18.589Z,92.99
2023-04-19T09:41:19.664Z,90.14
2023-04-19T09:42:28.089Z,94.51
2023-04-19T09:46:17.718Z,95.11
2023-04-19T09:47:18.485Z,95.37
2023-04-19T09:48:18.485Z,96.61
2023-04-19T09:49:24.977Z,92.16
2023-04-19T09:50:24.043Z,94.95
2023-04-19T09:51:18.653Z,95.16
2023-04-19T09:52:18.455Z,96.63
2023-04-19T09:53:18.448Z,96.55
2023-04-19T09:54:18.442Z,96.36
2023-04-19T09:55:27.121Z,96.59
2023-04-19T09:56:18.418Z,95.11
2023-04-19T09:57:18.407Z,95.24
2023-04-19T09:58:19.386Z,90.96
2023-04-19T09:59:21.162Z,97.76
2023-04-19T10:00:18.394Z,94.73
2023-04-19T10:01:18.524Z,90.50
2023-04-19T10:02:18.546Z,87.43
2023-04-19T10:03:18.412Z,92.82
2023-04-19T10:04:28.940Z,90.65
2023-04-19T10:05:22.860Z,94.97
2023-04-19T10:06:32.136Z,95.03
2023-04-19T10:07:29.249Z,95.45
2023-04-19T10:08:18.351Z,95.08
2023-04-19T10:09:18.333Z,96.96
2023-04-19T10:10:20.720Z,97.79
2023-04-19T10:11:18.322Z,94.87
2023-04-19T10:12:45.659Z,95.74
2023-04-19T10:13:21.298Z,95.09
2023-04-19T10:14:18.295Z,95.46
2023-04-19T10:15:18.299Z,95.55
2023-04-19T10:16:20.494Z,96.24
2023-04-19T10:17:19.383Z,100.25
2023-04-19T10:18:18.786Z,94.79
2023-04-19T10:19:18.253Z,87.95
2023-04-19T10:20:18.670Z,93.20
2023-04-19T10:21:18.876Z,92.46
2023-04-19T10:22:18.246Z,87.13
2023-04-19T10:23:18.225Z,89.48
2023-04-19T10:24:18.297Z,84.18
2023-04-19T10:25:18.311Z,81.78
2023-04-19T10:26:18.671Z,90.18
2023-04-19T10:27:18.400Z,92.62
2023-04-19T10:28:18.464Z,85.29
2023-04-19T10:29:18.685Z,92.04
2023-04-19T10:30:18.682Z,90.16
2023-04-19T10:31:18.514Z,86.88
2023-04-19T10:32:19.586Z,85.28
2023-04-19T10:33:18.487Z,91.64
2023-04-19T10:34:18.495Z,85.48
2023-04-19T10:35:18.678Z,81.35
2023-04-19T10:36:18.459Z,88.32
2023-04-19T10:37:18.502Z,84.08
2023-04-19T10:38:18.522Z,85.49
2023-04-19T10:39:18.579Z,77.53
2023-04-19T10:40:18.637Z,81.70
2023-04-19T10:41:19.350Z,82.22
2023-04-19T10:42:18.766Z,82.20
2023-04-19T10:43:18.835Z,88.49
2023-04-19T10:44:18.878Z,86.63
2023-04-19T10:45:18.930Z,84.38
2023-04-19T10:46:19.091Z,87.67
2023-04-19T10:47:19.095Z,79.53
2023-04-19T10:48:19.127Z,79.49
2023-04-19T10:49:19.397Z,81.43
2023-04-19T10:50:19.688Z,91.76
2023-04-19T10:51:19.399Z,84.02
2023-04-19T10:52:19.393Z,84.68
2023-04-19T10:53:19.538Z,87.85
2023-04-19T10:54:19.473Z,80.91
2023-04-19T10:55:19.542Z,80.89
2023-04-19T10:56:20.837Z,82.14
2023-04-19T10:57:20.021Z,75.47
2023-04-19T10:58:19.798Z,82.24
2023-04-19T10:59:19.798Z,83.40
2023-04-19T11:00:20.687Z,86.52
2023-04-19T11:01:20.235Z,77.39
2023-04-19T11:02:21.812Z,81.83
2023-04-19T11:03:20.134Z,83.79
2023-04-19T11:04:20.070Z,89.07
2023-04-19T11:05:22.683Z,89.90
2023-04-19T11:06:19.903Z,89.68
2023-04-19T11:07:20.701Z,86.93
2023-04-19T11:08:20.699Z,91.54
2023-04-19T11:09:19.915Z,87.27
2023-04-19T11:10:19.883Z,83.05
2023-04-19T11:11:20.188Z,92.24
2023-04-19T11:12:20.693Z,86.54
2023-04-19T11:13:22.686Z,82.56
2023-04-19T11:14:19.854Z,82.89
2023-04-19T11:15:19.845Z,81.78
2023-04-19T11:16:24.169Z,85.31
2023-04-19T11:17:21.741Z,83.00
2023-04-19T11:18:19.885Z,83.17
2023-04-19T11:19:19.906Z,84.71
2023-04-19T11:20:19.836Z,84.74
2023-04-19T11:21:22.687Z,90.59
2023-04-19T11:22:20.198Z,82.97
2023-04-19T11:23:22.692Z,83.15
2023-04-19T11:24:22.717Z,82.94
2023-04-19T11:25:19.773Z,83.45
2023-04-19T11:26:19.771Z,83.90
2023-04-19T11:27:19.763Z,87.61
2023-04-19T11:28:19.770Z,88.31
2023-04-19T11:29:19.754Z,92.43
2023-04-19T11:30:19.828Z,92.28
2023-04-19T11:31:22.713Z,81.87
2023-04-19T11:32:20.227Z,82.26
2023-04-19T11:34:37.341Z,25.00
2023-04-19T11:35:38.333Z,25.00
2023-04-19T11:36:38.330Z,25.00
2023-04-19T11:37:39.014Z,25.00
2023-04-19T11:38:38.311Z,25.00
2023-04-19T11:39:39.039Z,27.79
2023-04-19T11:40:38.360Z,22.80
2023-04-19T11:41:38.515Z,28.96
2023-04-19T11:42:39.011Z,31.95
2023-04-19T11:43:38.299Z,28.36
2023-04-19T11:44:38.286Z,30.96
2023-04-19T11:45:39.550Z,26.23
2023-04-19T11:46:38.536Z,30.57
2023-04-19T11:47:38.292Z,28.07
2023-04-19T11:48:38.239Z,25.00
2023-04-19T11:49:38.231Z,37.16
2023-04-19T11:50:38.358Z,36.48
2023-04-19T11:51:38.526Z,35.09
2023-04-19T11:52:38.249Z,32.52
2023-04-19T11:53:38.246Z,35.86
2023-04-19T11:55:56.088Z,25.00
2023-04-19T11:56:56.814Z,25.00
2023-04-19T11:57:56.793Z,25.00
2023-04-19T11:58:57.581Z,25.00
2023-04-19T11:59:56.773Z,25.00
2023-04-19T12:00:56.763Z,29.48
2023-04-19T12:01:57.518Z,27.54
2023-04-19T12:02:56.970Z,30.51
2023-04-19T12:03:57.023Z,29.78
2023-04-19T12:04:57.063Z,26.57
2023-04-19T12:05:57.182Z,25.00
2023-04-19T12:06:57.482Z,34.48
2023-04-19T12:07:57.979Z,27.67
2023-04-19T12:09:03.984Z,35.27
2023-04-19T12:09:57.122Z,35.72
2023-04-19T12:10:57.141Z,36.37
2023-04-19T12:11:57.524Z,36.34
2023-04-19T12:12:57.108Z,35.68
2023-04-19T12:13:57.107Z,27.91
2023-04-19T12:14:57.084Z,29.83
2023-04-19T12:15:57.496Z,34.28
2023-04-19T12:16:57.112Z,37.29
2023-04-19T12:17:57.809Z,31.96
2023-04-19T12:18:57.057Z,33.95
2023-04-19T12:19:57.056Z,38.59
2023-04-19T12:20:58.853Z,35.50
2023-04-19T12:21:57.069Z,35.69
2023-04-19T12:22:57.054Z,35.92
2023-04-19T12:23:57.056Z,28.85
2023-04-19T12:24:57.036Z,29.26
2023-04-19T12:25:57.035Z,32.27
2023-04-19T12:26:57.563Z,32.93
2023-04-19T12:27:57.047Z,34.07
2023-04-19T12:28:57.018Z,26.56
2023-04-19T12:29:57.012Z,32.09
2023-04-19T12:30:56.990Z,27.91
2023-04-19T12:31:57.061Z,36.66
2023-04-19T12:32:56.997Z,33.39
2023-04-19T12:33:57.010Z,31.02
2023-04-19T12:34:57.496Z,27.25
2023-04-19T12:35:56.967Z,39.10
2023-04-19T12:36:57.510Z,26.50
2023-04-19T12:37:57.028Z,37.59
2023-04-19T12:38:57.117Z,35.34
2023-04-19T12:39:57.146Z,36.13
2023-04-19T12:40:57.220Z,33.74
2023-04-19T12:41:57.294Z,33.12
2023-04-19T12:42:57.355Z,32.93
2023-04-19T12:43:57.403Z,29.20
2023-04-19T12:44:57.427Z,32.41
2023-04-19T12:45:57.548Z,26.84
2023-04-19T12:46:58.123Z,35.19
2023-04-19T12:47:57.622Z,34.31
2023-04-19T12:48:57.669Z,32.47
2023-04-19T12:49:57.716Z,39.96
2023-04-19T12:50:57.800Z,28.59
2023-04-19T12:51:57.996Z,34.21
2023-04-19T12:52:57.908Z,36.26
2023-04-19T12:53:57.955Z,33.06
2023-04-19T12:54:58.010Z,30.01
2023-04-19T12:55:58.085Z,35.70
2023-04-19T12:56:58.140Z,28.09
2023-04-19T12:57:58.497Z,29.76
2023-04-19T12:58:58.239Z,37.25